Canovelles, Spain
Current Conditions -  °F | °C
As of 5:00 PM on Monday 24 Nov 2014 (Local Time) from LELL Reporting Station
Few Clouds Few Clouds  
Wind Chill: 66°   Ceiling: Unl
Heat Index: 66°   Visibility: 6mi
Dew Point: 61°   Wind: 3mph
Humidity: 83%   Direction: 50°NE
Pressure: 30.03"   Gusts: NA
Location:  41.62°N, 2.28°E
Report Text: LELL 241600Z 05003KT 010V110 9999 FEW070 19/16 Q1017
Loading
Personal Weather Stations






























Interactive Weather Map New forecast layout! Learn more

10-Day Weather Forecast

Advertisements
Track Severe Weather on mobile